Time,TemperatureF,DewpointF,PressureIn,WindDirection,WindDirectionDegrees,WindSpeedMPH,WindSpeedGustMPH,Humidity,HourlyPrecipIn,Conditions,Clouds,dailyrainin,SoftwareType,DateUTC
2013-05-17 00:00:00,58.0,43.3,29.86,North,1,5.0,12.0,58,0.00,CLR,,0.00,WeatherDisplay:10.37,2013-05-17 04:00:00,
2013-05-17 00:10:00,57.2,43.5,29.86,NNE,23,2.0,12.0,60,0.00,CLR,,0.00,WeatherDisplay:10.37,2013-05-17 04:10:00,
2013-05-17 00:30:00,56.1,43.3,29.87,North,354,0.0,8.0,62,0.00,CLR,,0.00,WeatherDisplay:10.37,2013-05-17 04:30:00,
2013-05-17 00:40:00,55.4,43.0,29.87,North,353,3.0,6.0,63,0.00,CLR,,0.00,WeatherDisplay:10.37,2013-05-17 04:40:00,
2013-05-17 00:50:00,54.9,42.9,29.88,North,350,0.0,5.0,64,0.00,CLR,,0.00,WeatherDisplay:10.37,2013-05-17 04:50:00,
2013-05-17 01:00:00,54.1,43.0,29.89,North,349,2.0,3.0,66,0.00,CLR,,0.00,WeatherDisplay:10.37,2013-05-17 05:00:00,
2013-05-17 01:10:00,53.3,43.0,29.89,NNW,348,2.0,5.0,68,0.00,FEW,,0.00,WeatherDisplay:10.37,2013-05-17 05:10:00,
2013-05-17 01:20:00,52.9,43.4,29.89,NW,319,1.0,6.0,70,0.00,FEW,,0.00,WeatherDisplay:10.37,2013-05-17 05:20:00,
2013-05-17 01:30:00,52.9,43.7,29.90,NW,324,1.0,6.0,71,0.00,FEW,,0.00,WeatherDisplay:10.37,2013-05-17 05:30:00,
2013-05-17 01:40:00,53.0,43.8,29.90,NW,309,5.0,6.0,71,0.00,FEW,,0.00,WeatherDisplay:10.37,2013-05-17 05:40:00,
2013-05-17 01:50:00,53.2,43.7,29.90,NW,309,0.0,6.0,70,0.00,FEW,,0.00,WeatherDisplay:10.37,2013-05-17 05:50:00,
2013-05-17 02:00:00,53.2,43.7,29.91,WNW,295,3.0,6.0,70,0.00,FEW,,0.00,WeatherDisplay:10.37,2013-05-17 06:00:00,
2013-05-17 02:10:00,53.1,43.9,29.91,WNW,288,1.0,3.0,71,0.00,BKN,,0.00,WeatherDisplay:10.37,2013-05-17 06:10:00,
2013-05-17 02:20:00,53.0,43.8,29.91,WNW,288,0.0,5.0,71,0.00,BKN,,0.00,WeatherDisplay:10.37,2013-05-17 06:20:00,
2013-05-17 02:30:00,52.6,44.2,29.91,WNW,288,1.0,5.0,73,0.00,BKN,,0.00,WeatherDisplay:10.37,2013-05-17 06:30:00,
2013-05-17 02:40:00,52.2,44.2,29.92,WNW,288,2.0,3.0,74,0.00,BKN,,0.00,WeatherDisplay:10.37,2013-05-17 06:40:00,
2013-05-17 02:50:00,51.7,44.4,29.92,WNW,288,0.0,3.0,76,0.00,BKN,,0.00,WeatherDisplay:10.37,2013-05-17 06:50:00,
2013-05-17 03:00:00,52.1,43.7,29.93,NW,322,2.0,8.0,73,0.00,BKN,,0.00,WeatherDisplay:10.37,2013-05-17 07:00:00,
2013-05-17 03:10:00,52.2,43.8,29.93,NW,325,2.0,5.0,73,0.00,BKN,,0.00,WeatherDisplay:10.37,2013-05-17 07:10:00,
2013-05-17 03:20:00,51.7,43.3,29.93,NW,319,0.0,5.0,73,0.00,BKN,,0.00,WeatherDisplay:10.37,2013-05-17 07:20:00,
2013-05-17 03:30:00,51.5,43.1,29.93,West,269,0.0,6.0,73,0.00,BKN,,0.00,WeatherDisplay:10.37,2013-05-17 07:30:00,
2013-05-17 03:40:00,51.0,43.0,29.94,NW,309,6.0,8.0,74,0.00,BKN,,0.00,WeatherDisplay:10.37,2013-05-17 07:40:00,
2013-05-17 03:50:00,50.3,42.3,29.94,NNW,343,1.0,5.0,74,0.00,BKN,,0.00,WeatherDisplay:10.37,2013-05-17 07:50:00,
2013-05-17 04:00:00,49.7,42.1,29.94,NNW,329,5.0,6.0,75,0.00,BKN,,0.00,WeatherDisplay:10.37,2013-05-17 08:00:00,
2013-05-17 04:10:00,49.4,41.5,29.95,NW,321,0.0,5.0,74,0.00,CLR,,0.00,WeatherDisplay:10.37,2013-05-17 08:10:00,
2013-05-17 04:20:00,48.7,41.5,29.95,NW,321,1.0,5.0,76,0.00,CLR,,0.00,WeatherDisplay:10.37,2013-05-17 08:20:00,
2013-05-17 04:30:00,48.2,41.3,29.95,West,273,5.0,6.0,77,0.00,CLR,,0.00,WeatherDisplay:10.37,2013-05-17 08:30:00,
2013-05-17 04:40:00,47.9,41.0,29.96,WNW,291,3.0,8.0,77,0.00,CLR,,0.00,WeatherDisplay:10.37,2013-05-17 08:40:00,
2013-05-17 04:50:00,47.9,41.0,29.97,WNW,291,5.0,6.0,77,0.00,CLR,,0.00,WeatherDisplay:10.37,2013-05-17 08:50:00,
2013-05-17 05:00:00,48.2,40.7,29.98,WNW,302,2.0,8.0,75,0.00,CLR,,0.00,WeatherDisplay:10.37,2013-05-17 09:00:00,
2013-05-17 05:10:00,48.1,40.2,29.99,WNW,297,1.0,8.0,74,0.00,CLR,,0.00,WeatherDisplay:10.37,2013-05-17 09:10:00,
2013-05-17 05:20:00,47.7,40.5,30.00,West,277,0.0,5.0,76,0.00,CLR,,0.00,WeatherDisplay:10.37,2013-05-17 09:20:00,
2013-05-17 05:30:00,47.4,40.2,30.00,West,279,5.0,9.0,76,0.00,CLR,,0.00,WeatherDisplay:10.37,2013-05-17 09:30:00,
2013-05-17 05:40:00,47.5,40.3,30.00,West,281,3.0,8.0,76,0.00,CLR,,0.00,WeatherDisplay:10.37,2013-05-17 09:40:00,
2013-05-17 05:50:00,47.6,40.4,30.01,WNW,296,5.0,10.0,76,0.00,CLR,,0.00,WeatherDisplay:10.37,2013-05-17 09:50:00,
2013-05-17 06:00:00,47.7,40.5,30.01,WNW,288,3.0,12.0,76,0.00,CLR,,0.00,WeatherDisplay:10.37,2013-05-17 10:00:00,
2013-05-17 06:10:00,47.8,40.3,30.02,WNW,298,3.0,8.0,75,0.00,SCT,,0.00,WeatherDisplay:10.37,2013-05-17 10:10:00,
2013-05-17 06:20:00,48.2,40.3,30.03,WNW,295,6.0,10.0,74,0.00,SCT,,0.00,WeatherDisplay:10.37,2013-05-17 10:20:00,
2013-05-17 06:30:00,48.5,40.6,30.03,WNW,301,3.0,10.0,74,0.00,SCT,,0.00,WeatherDisplay:10.37,2013-05-17 10:30:00,
2013-05-17 06:40:00,48.9,40.3,30.04,WNW,294,7.0,14.0,72,0.00,SCT,,0.00,WeatherDisplay:10.37,2013-05-17 10:40:00,
2013-05-17 06:50:00,49.7,40.7,30.05,WNW,283,3.0,12.0,71,0.00,SCT,,0.00,WeatherDisplay:10.37,2013-05-17 10:50:00,
2013-05-17 07:00:00,50.8,41.4,30.05,NW,304,8.0,9.0,70,0.00,SCT,,0.00,WeatherDisplay:10.37,2013-05-17 11:00:00,
2013-05-17 07:10:00,51.3,41.4,30.05,WNW,292,6.0,14.0,69,0.00,BKN,,0.00,WeatherDisplay:10.37,2013-05-17 11:10:00,
2013-05-17 07:20:00,52.0,41.0,30.05,NW,304,2.0,8.0,66,0.00,BKN,,0.00,WeatherDisplay:10.37,2013-05-17 11:20:00,
2013-05-17 07:30:00,51.7,40.7,30.05,NW,317,5.0,12.0,66,0.00,BKN,,0.00,WeatherDisplay:10.37,2013-05-17 11:30:00,
2013-05-17 07:40:00,52.0,41.3,30.06,NW,304,2.0,9.0,67,0.00,BKN,,0.00,WeatherDisplay:10.37,2013-05-17 11:40:00,
2013-05-17 07:50:00,52.3,41.3,30.06,NW,304,7.0,10.0,66,0.00,BKN,,0.00,WeatherDisplay:10.37,2013-05-17 11:50:00,
2013-05-17 08:00:00,53.1,41.2,30.06,WNW,299,5.0,9.0,64,0.00,BKN,,0.00,WeatherDisplay:10.37,2013-05-17 12:00:00,
2013-05-17 08:10:00,53.4,42.3,30.07,WNW,287,3.0,12.0,66,0.00,BKN,,0.00,WeatherDisplay:10.37,2013-05-17 12:10:00,
2013-05-17 08:20:00,54.9,42.5,30.07,NW,309,5.0,10.0,63,0.00,BKN,,0.00,WeatherDisplay:10.37,2013-05-17 12:20:00,
2013-05-17 08:30:00,55.2,42.0,30.07,NW,320,7.0,12.0,61,0.00,BKN,,0.00,WeatherDisplay:10.37,2013-05-17 12:30:00,
2013-05-17 08:40:00,56.0,41.4,30.07,NW,322,8.0,15.0,58,0.00,BKN,,0.00,WeatherDisplay:10.37,2013-05-17 12:40:00,
2013-05-17 08:50:00,56.2,41.2,30.07,NW,315,12.0,21.0,57,0.00,BKN,,0.00,WeatherDisplay:10.37,2013-05-17 12:50:00,
2013-05-17 09:00:00,56.8,41.7,30.07,NNW,342,7.0,16.0,57,0.00,BKN,,0.00,WeatherDisplay:10.37,2013-05-17 13:00:00,
2013-05-17 09:10:00,57.1,41.1,30.07,NNW,335,14.0,20.0,55,0.00,BKN,,0.00,WeatherDisplay:10.37,2013-05-17 13:10:00,
2013-05-17 09:20:00,58.2,43.0,30.07,NNW,344,8.0,15.0,57,0.00,BKN,,0.00,WeatherDisplay:10.37,2013-05-17 13:20:00,
2013-05-17 09:30:00,58.4,42.2,30.07,NNW,338,9.0,16.0,55,0.00,BKN,,0.00,WeatherDisplay:10.37,2013-05-17 13:30:00,
2013-05-17 09:40:00,58.6,41.5,30.08,North,3,6.0,12.0,53,0.00,BKN,,0.00,WeatherDisplay:10.37,2013-05-17 13:40:00,
2013-05-17 09:50:00,57.6,41.1,30.08,WNW,291,8.0,14.0,54,0.00,BKN,,0.00,WeatherDisplay:10.37,2013-05-17 13:50:00,
2013-05-17 10:00:00,57.6,41.1,30.08,WNW,295,7.0,12.0,54,0.00,BKN,,0.00,WeatherDisplay:10.37,2013-05-17 14:00:00,
2013-05-17 10:10:00,58.1,41.5,30.08,NW,317,7.0,9.0,54,0.00,BKN,,0.00,WeatherDisplay:10.37,2013-05-17 14:10:00,
2013-05-17 10:20:00,58.2,41.2,30.09,NW,326,12.0,12.0,53,0.00,BKN,,0.00,WeatherDisplay:10.37,2013-05-17 14:20:00,
2013-05-17 10:30:00,58.5,41.9,30.09,WNW,296,8.0,10.0,54,0.00,BKN,,0.00,WeatherDisplay:10.37,2013-05-17 14:30:00,
2013-05-17 10:40:00,58.9,41.8,30.09,WNW,283,5.0,14.0,53,0.00,BKN,,0.00,WeatherDisplay:10.37,2013-05-17 14:40:00,
2013-05-17 10:50:00,60.5,42.8,30.09,WNW,299,9.0,12.0,52,0.00,BKN,,0.00,WeatherDisplay:10.37,2013-05-17 14:50:00,
2013-05-17 11:00:00,61.5,42.2,30.09,NNW,347,8.0,12.0,49,0.00,BKN,,0.00,WeatherDisplay:10.37,2013-05-17 15:00:00,
2013-05-17 11:10:00,60.3,41.6,30.09,West,273,1.0,10.0,50,0.00,BKN,,0.00,WeatherDisplay:10.37,2013-05-17 15:10:00,
2013-05-17 11:20:00,60.7,42.5,30.09,NW,321,5.0,14.0,51,0.00,BKN,,0.00,WeatherDisplay:10.37,2013-05-17 15:20:00,
2013-05-17 11:30:00,62.1,41.6,30.10,NNW,347,3.0,12.0,47,0.00,BKN,,0.00,WeatherDisplay:10.37,2013-05-17 15:30:00,
2013-05-17 11:40:00,61.7,41.8,30.10,West,262,9.0,12.0,48,0.00,BKN,,0.00,WeatherDisplay:10.37,2013-05-17 15:40:00,
2013-05-17 11:50:00,61.1,41.8,30.09,NW,323,3.0,14.0,49,0.00,BKN,,0.00,WeatherDisplay:10.37,2013-05-17 15:50:00,
2013-05-17 12:00:00,62.7,42.2,30.09,NNE,23,15.0,21.0,47,0.00,BKN,,0.00,WeatherDisplay:10.37,2013-05-17 16:00:00,
2013-05-17 12:10:00,63.2,43.2,30.09,NW,307,7.0,10.0,48,0.00,SCT,,0.00,WeatherDisplay:10.37,2013-05-17 16:10:00,
2013-05-17 12:20:00,64.3,43.1,30.09,NE,46,8.0,14.0,46,0.00,SCT,,0.00,WeatherDisplay:10.37,2013-05-17 16:20:00,
2013-05-17 12:30:00,64.1,41.7,30.09,NNE,13,10.0,15.0,44,0.00,SCT,,0.00,WeatherDisplay:10.37,2013-05-17 16:30:00,
2013-05-17 12:40:00,64.7,42.3,30.09,NW,315,3.0,12.0,44,0.00,SCT,,0.00,WeatherDisplay:10.37,2013-05-17 16:40:00,
2013-05-17 12:50:00,64.9,42.4,30.09,NNE,32,9.0,16.0,44,0.00,SCT,,0.00,WeatherDisplay:10.37,2013-05-17 16:50:00,
2013-05-17 13:00:00,64.1,41.7,30.09,North,0,2.0,16.0,44,0.00,SCT,,0.00,WeatherDisplay:10.37,2013-05-17 17:00:00,
2013-05-17 13:10:00,64.4,41.4,30.09,North,356,9.0,15.0,43,0.00,BKN,,0.00,WeatherDisplay:10.37,2013-05-17 17:10:00,
2013-05-17 13:20:00,64.2,41.8,30.09,North,353,9.0,10.0,44,0.00,BKN,,0.00,WeatherDisplay:10.37,2013-05-17 17:20:00,
2013-05-17 13:30:00,65.1,43.8,30.09,WNW,300,9.0,14.0,46,0.00,BKN,,0.00,WeatherDisplay:10.37,2013-05-17 17:30:00,
2013-05-17 13:40:00,65.4,44.1,30.09,NE,37,7.0,14.0,46,0.00,BKN,,0.00,WeatherDisplay:10.37,2013-05-17 17:40:00,
2013-05-17 13:50:00,65.7,41.9,30.09,ENE,64,13.0,18.0,42,0.00,BKN,,0.00,WeatherDisplay:10.37,2013-05-17 17:50:00,
2013-05-17 14:00:00,65.6,43.7,30.09,North,352,2.0,12.0,45,0.00,BKN,,0.00,WeatherDisplay:10.37,2013-05-17 18:00:00,
2013-05-17 14:10:00,67.4,43.5,30.09,NE,54,9.0,12.0,42,0.00,BKN,,0.00,WeatherDisplay:10.37,2013-05-17 18:10:00,
2013-05-17 14:20:00,66.4,43.9,30.09,NE,43,2.0,10.0,44,0.00,BKN,,0.00,WeatherDisplay:10.37,2013-05-17 18:20:00,
2013-05-17 14:30:00,66.3,43.2,30.09,NE,42,8.0,12.0,43,0.00,BKN,,0.00,WeatherDisplay:10.37,2013-05-17 18:30:00,
2013-05-17 14:40:00,67.0,42.5,30.09,NNW,339,1.0,9.0,41,0.00,BKN,,0.00,WeatherDisplay:10.37,2013-05-17 18:40:00,
2013-05-17 14:50:00,68.2,42.3,30.09,NNW,347,8.0,12.0,39,0.00,BKN,,0.00,WeatherDisplay:10.37,2013-05-17 18:50:00,
2013-05-17 15:00:00,68.6,42.6,30.09,North,6,6.0,14.0,39,0.00,BKN,,0.00,WeatherDisplay:10.37,2013-05-17 19:00:00,
2013-05-17 15:10:00,67.7,41.9,30.09,NE,51,3.0,14.0,39,0.00,BKN,,0.00,WeatherDisplay:10.37,2013-05-17 19:10:00,
2013-05-17 15:20:00,68.9,44.8,30.09,NE,39,0.0,10.0,42,0.00,BKN,,0.00,WeatherDisplay:10.37,2013-05-17 19:20:00,
2013-05-17 15:30:00,69.0,43.0,30.08,East,82,1.0,10.0,39,0.00,BKN,,0.00,WeatherDisplay:10.37,2013-05-17 19:30:00,
2013-05-17 15:40:00,68.8,42.8,30.08,ENE,65,14.0,14.0,39,0.00,BKN,,0.00,WeatherDisplay:10.37,2013-05-17 19:40:00,
2013-05-17 15:50:00,69.3,41.9,30.08,ENE,60,10.0,12.0,37,0.00,BKN,,0.00,WeatherDisplay:10.37,2013-05-17 19:50:00,
2013-05-17 16:00:00,69.8,43.7,30.08,NE,47,2.0,12.0,39,0.00,BKN,,0.00,WeatherDisplay:10.37,2013-05-17 20:00:00,
2013-05-17 16:10:00,69.8,43.7,30.08,NE,51,2.0,12.0,39,0.00,BKN,,0.00,WeatherDisplay:10.37,2013-05-17 20:10:00,
2013-05-17 16:20:00,68.9,40.8,30.08,NNE,32,1.0,12.0,36,0.00,BKN,,0.00,WeatherDisplay:10.37,2013-05-17 20:20:00,
2013-05-17 16:30:00,69.3,41.9,30.08,NE,55,7.0,10.0,37,0.00,BKN,,0.00,WeatherDisplay:10.37,2013-05-17 20:30:00,
2013-05-17 16:40:00,68.9,42.3,30.08,NE,55,7.0,10.0,38,0.00,BKN,,0.00,WeatherDisplay:10.37,2013-05-17 20:40:00,
2013-05-17 16:50:00,69.3,41.2,30.09,East,84,6.0,12.0,36,0.00,BKN,,0.00,WeatherDisplay:10.37,2013-05-17 20:50:00,
2013-05-17 17:00:00,69.4,41.3,30.08,ENE,70,2.0,8.0,36,0.00,BKN,,0.00,WeatherDisplay:10.37,2013-05-17 21:00:00,
2013-05-17 17:10:00,69.6,41.4,30.09,ENE,66,2.0,10.0,36,0.00,BKN,,0.00,WeatherDisplay:10.37,2013-05-17 21:10:00,
2013-05-17 17:20:00,69.4,41.3,30.09,NNE,18,3.0,9.0,36,0.00,BKN,,0.00,WeatherDisplay:10.37,2013-05-17 21:20:00,
2013-05-17 17:30:00,69.4,40.6,30.09,NNE,33,3.0,6.0,35,0.00,BKN,,0.00,WeatherDisplay:10.37,2013-05-17 21:30:00,
2013-05-17 17:40:00,69.4,41.3,30.08,East,79,6.0,9.0,36,0.00,BKN,,0.00,WeatherDisplay:10.37,2013-05-17 21:40:00,
2013-05-17 17:50:00,69.3,41.2,30.08,NE,41,1.0,9.0,36,0.00,BKN,,0.00,WeatherDisplay:10.37,2013-05-17 21:50:00,
2013-05-17 18:00:00,68.5,39.8,30.09,North,10,3.0,8.0,35,0.00,BKN,,0.00,WeatherDisplay:10.37,2013-05-17 22:00:00,
2013-05-17 18:10:00,68.5,40.5,30.09,ENE,73,3.0,9.0,36,0.00,SCT,,0.00,WeatherDisplay:10.37,2013-05-17 22:10:00,
2013-05-17 18:20:00,67.9,39.9,30.09,North,9,5.0,9.0,36,0.00,SCT,,0.00,WeatherDisplay:10.37,2013-05-17 22:20:00,
2013-05-17 18:30:00,67.7,40.5,30.09,North,3,1.0,8.0,37,0.00,SCT,,0.00,WeatherDisplay:10.37,2013-05-17 22:30:00,
2013-05-17 18:40:00,67.6,40.4,30.10,NNE,25,2.0,10.0,37,0.00,SCT,,0.00,WeatherDisplay:10.37,2013-05-17 22:40:00,
2013-05-17 18:50:00,67.2,39.3,30.10,NE,52,5.0,8.0,36,0.00,SCT,,0.00,WeatherDisplay:10.37,2013-05-17 22:50:00,
2013-05-17 19:00:00,67.0,39.2,30.10,NNE,29,2.0,8.0,36,0.00,SCT,,0.00,WeatherDisplay:10.37,2013-05-17 23:00:00,
2013-05-17 19:10:00,66.4,40.7,30.10,NNE,32,0.0,7.0,39,0.00,SCT,,0.00,WeatherDisplay:10.37,2013-05-17 23:10:00,
2013-05-17 19:20:00,65.8,40.8,30.11,NE,50,0.0,5.0,40,0.00,SCT,,0.00,WeatherDisplay:10.37,2013-05-17 23:20:00,
2013-05-17 19:30:00,64.9,43.6,30.11,NE,46,0.0,3.0,46,0.00,SCT,,0.00,WeatherDisplay:10.37,2013-05-17 23:30:00,
2013-05-17 19:40:00,63.2,43.1,30.11,NE,46,0.0,2.0,48,0.00,SCT,,0.00,WeatherDisplay:10.37,2013-05-17 23:40:00,
2013-05-17 19:50:00,61.7,43.9,30.12,NE,46,0.0,0.0,52,0.00,SCT,,0.00,WeatherDisplay:10.37,2013-05-17 23:50:00,
2013-05-17 20:00:00,60.9,42.7,30.12,NE,41,0.0,3.0,51,0.00,SCT,,0.00,WeatherDisplay:10.37,2013-05-18 00:00:00,
2013-05-17 20:10:00,59.8,43.1,30.12,NE,41,0.0,0.0,54,0.00,SCT,,0.00,WeatherDisplay:10.37,2013-05-18 00:10:00,
2013-05-17 20:20:00,58.3,43.2,30.13,NE,41,0.0,0.0,57,0.00,SCT,,0.00,WeatherDisplay:10.37,2013-05-18 00:20:00,
2013-05-17 20:30:00,57.2,42.6,30.14,NE,41,0.0,0.0,58,0.00,SCT,,0.00,WeatherDisplay:10.37,2013-05-18 00:30:00,
2013-05-17 20:40:00,56.3,42.6,30.14,NE,41,0.0,2.0,60,0.00,SCT,,0.00,WeatherDisplay:10.37,2013-05-18 00:40:00,
2013-05-17 20:50:00,55.4,43.0,30.15,NE,41,2.0,3.0,63,0.00,SCT,,0.00,WeatherDisplay:10.37,2013-05-18 00:50:00,
2013-05-17 21:00:00,54.9,42.9,30.15,NE,41,0.0,2.0,64,0.00,SCT,,0.00,WeatherDisplay:10.37,2013-05-18 01:00:00,
2013-05-17 21:10:00,54.3,42.8,30.16,NE,41,0.0,2.0,65,0.00,SCT,,0.00,WeatherDisplay:10.37,2013-05-18 01:10:00,
2013-05-17 21:20:00,54.1,43.0,30.16,NE,41,0.0,2.0,66,0.00,SCT,,0.00,WeatherDisplay:10.37,2013-05-18 01:20:00,
2013-05-17 21:30:00,53.8,43.1,30.17,NE,41,0.0,0.0,67,0.00,SCT,,0.00,WeatherDisplay:10.37,2013-05-18 01:30:00,
2013-05-17 21:40:00,53.6,43.7,30.17,NE,41,2.0,2.0,69,0.00,SCT,,0.00,WeatherDisplay:10.37,2013-05-18 01:40:00,
2013-05-17 21:50:00,53.2,43.7,30.18,NE,41,0.0,3.0,70,0.00,SCT,,0.00,WeatherDisplay:10.37,2013-05-18 01:50:00,
2013-05-17 22:00:00,53.1,44.3,30.18,NE,41,0.0,2.0,72,0.00,SCT,,0.00,WeatherDisplay:10.37,2013-05-18 02:00:00,
2013-05-17 22:10:00,53.0,43.8,30.18,NE,41,1.0,2.0,71,0.00,SCT,,0.00,WeatherDisplay:10.37,2013-05-18 02:10:00,
2013-05-17 22:20:00,53.1,43.9,30.18,NE,41,0.0,0.0,71,0.00,SCT,,0.00,WeatherDisplay:10.37,2013-05-18 02:20:00,
2013-05-17 22:30:00,53.4,44.6,30.18,NE,41,0.0,0.0,72,0.00,SCT,,0.00,WeatherDisplay:10.37,2013-05-18 02:30:00,
2013-05-17 22:40:00,53.7,44.9,30.19,NE,41,0.0,0.0,72,0.00,SCT,,0.00,WeatherDisplay:10.37,2013-05-18 02:40:00,
2013-05-17 22:50:00,53.9,45.1,30.19,NE,41,0.0,0.0,72,0.00,SCT,,0.00,WeatherDisplay:10.37,2013-05-18 02:50:00,
2013-05-17 23:00:00,54.1,44.9,30.19,NE,41,0.0,0.0,71,0.00,SCT,,0.00,WeatherDisplay:10.37,2013-05-18 03:00:00,
2013-05-17 23:10:00,54.0,45.2,30.19,NE,41,0.0,2.0,72,0.00,BKN,,0.00,WeatherDisplay:10.37,2013-05-18 03:10:00,
2013-05-17 23:20:00,53.9,45.8,30.20,NE,41,0.0,0.0,74,0.00,BKN,,0.00,WeatherDisplay:10.37,2013-05-18 03:20:00,
2013-05-17 23:30:00,53.7,46.3,30.20,NE,41,0.0,0.0,76,0.00,BKN,,0.00,WeatherDisplay:10.37,2013-05-18 03:30:00,
2013-05-17 23:40:00,53.6,45.5,30.20,NE,41,0.0,0.0,74,0.00,BKN,,0.00,WeatherDisplay:10.37,2013-05-18 03:40:00,
2013-05-17 23:50:00,54.0,45.2,30.21,NE,41,1.0,3.0,72,0.00,BKN,,0.00,WeatherDisplay:10.37,2013-05-18 03:50:00,